sensor_id;sensor_type;location;lat;lon;timestamp;pressure;altitude;pressure_sealevel;temperature;humidity
59194;BME280;44967;48.598;15.650;2022-11-23T00:00:36;96973.97;;;8.98;58.97
59194;BME280;44967;48.598;15.650;2022-11-23T00:03:02;96976.56;;;8.80;60.32
59194;BME280;44967;48.598;15.650;2022-11-23T00:05:29;96974.72;;;8.91;60.23
59194;BME280;44967;48.598;15.650;2022-11-23T00:07:58;96985.63;;;8.91;58.18
59194;BME280;44967;48.598;15.650;2022-11-23T00:10:23;96979.44;;;8.98;59.69
59194;BME280;44967;48.598;15.650;2022-11-23T00:12:49;96980.94;;;8.92;59.58
59194;BME280;44967;48.598;15.650;2022-11-23T00:15:15;96991.09;;;8.95;59.66
59194;BME280;44967;48.598;15.650;2022-11-23T00:17:40;96993.84;;;9.02;59.52
59194;BME280;44967;48.598;15.650;2022-11-23T00:20:07;96987.66;;;9.05;60.13
59194;BME280;44967;48.598;15.650;2022-11-23T00:22:34;96993.06;;;9.02;59.30
59194;BME280;44967;48.598;15.650;2022-11-23T00:25:00;96989.19;;;9.03;59.82
59194;BME280;44967;48.598;15.650;2022-11-23T00:27:25;96992.31;;;9.05;60.02
59194;BME280;44967;48.598;15.650;2022-11-23T00:29:51;96991.16;;;9.10;59.63
59194;BME280;44967;48.598;15.650;2022-11-23T00:32:17;96989.22;;;9.10;59.31
59194;BME280;44967;48.598;15.650;2022-11-23T00:34:42;96992.31;;;9.05;59.70
59194;BME280;44967;48.598;15.650;2022-11-23T00:37:08;96995.38;;;8.96;59.57
59194;BME280;44967;48.598;15.650;2022-11-23T00:39:34;96990.63;;;8.89;60.66
59194;BME280;44967;48.598;15.650;2022-11-23T00:41:59;96993.81;;;8.95;59.79
59194;BME280;44967;48.598;15.650;2022-11-23T00:44:25;97005.81;;;8.90;60.60
59194;BME280;44967;48.598;15.650;2022-11-23T00:46:50;97012.09;;;8.98;59.91
59194;BME280;44967;48.598;15.650;2022-11-23T00:49:16;96997.31;;;8.96;60.25
59194;BME280;44967;48.598;15.650;2022-11-23T00:51:42;97001.56;;;8.93;59.79
59194;BME280;44967;48.598;15.650;2022-11-23T00:54:07;96998.84;;;8.93;59.06
59194;BME280;44967;48.598;15.650;2022-11-23T00:56:34;96997.25;;;8.88;59.37
59194;BME280;44967;48.598;15.650;2022-11-23T00:59:01;97000.75;;;8.89;60.31
59194;BME280;44967;48.598;15.650;2022-11-23T01:01:29;96994.03;;;8.75;61.07
59194;BME280;44967;48.598;15.650;2022-11-23T01:03:59;96993.72;;;8.84;60.31
59194;BME280;44967;48.598;15.650;2022-11-23T01:06:36;96995.13;;;8.67;58.59
59194;BME280;44967;48.598;15.650;2022-11-23T01:09:06;96989.25;;;8.61;61.01
59194;BME280;44967;48.598;15.650;2022-11-23T01:11:32;96979.59;;;8.71;60.27
59194;BME280;44967;48.598;15.650;2022-11-23T01:13:58;96980.41;;;8.72;60.33
59194;BME280;44967;48.598;15.650;2022-11-23T01:16:26;96980.75;;;8.70;59.82
59194;BME280;44967;48.598;15.650;2022-11-23T01:18:56;96973.41;;;8.71;60.10
59194;BME280;44967;48.598;15.650;2022-11-23T01:21:23;96968.78;;;8.78;60.55
59194;BME280;44967;48.598;15.650;2022-11-23T01:23:49;96978.56;;;8.83;60.00
59194;BME280;44967;48.598;15.650;2022-11-23T01:26:16;96980.81;;;8.77;60.16
59194;BME280;44967;48.598;15.650;2022-11-23T01:28:41;96980.84;;;8.81;59.89
59194;BME280;44967;48.598;15.650;2022-11-23T01:31:19;96981.31;;;8.94;59.70
59194;BME280;44967;48.598;15.650;2022-11-23T01:33:45;96981.78;;;9.00;59.71
59194;BME280;44967;48.598;15.650;2022-11-23T01:36:12;96984.13;;;9.05;59.21
59194;BME280;44967;48.598;15.650;2022-11-23T01:38:39;96989.53;;;8.98;59.27
59194;BME280;44967;48.598;15.650;2022-11-23T01:41:06;96991.88;;;8.99;58.79
59194;BME280;44967;48.598;15.650;2022-11-23T01:43:32;96989.50;;;8.94;59.37
59194;BME280;44967;48.598;15.650;2022-11-23T01:45:59;96997.31;;;8.96;59.70
59194;BME280;44967;48.598;15.650;2022-11-23T01:48:29;96996.09;;;8.93;59.25
59194;BME280;44967;48.598;15.650;2022-11-23T01:50:58;96996.88;;;8.90;59.49
59194;BME280;44967;48.598;15.650;2022-11-23T01:53:26;96996.47;;;8.88;59.49
59194;BME280;44967;48.598;15.650;2022-11-23T01:55:54;96986.00;;;8.94;59.71
59194;BME280;44967;48.598;15.650;2022-11-23T01:58:23;96991.75;;;8.81;59.37
59194;BME280;44967;48.598;15.650;2022-11-23T02:00:49;96990.22;;;8.84;59.86
59194;BME280;44967;48.598;15.650;2022-11-23T02:03:16;96991.47;;;8.94;59.54
59194;BME280;44967;48.598;15.650;2022-11-23T02:05:50;96992.16;;;8.87;59.78
59194;BME280;44967;48.598;15.650;2022-11-23T02:08:19;96993.69;;;8.81;57.98
59194;BME280;44967;48.598;15.650;2022-11-23T02:10:45;96987.47;;;8.80;60.35
59194;BME280;44967;48.598;15.650;2022-11-23T02:13:12;96989.78;;;8.78;59.79
59194;BME280;44967;48.598;15.650;2022-11-23T02:15:39;96990.13;;;8.73;60.25
59194;BME280;44967;48.598;15.650;2022-11-23T02:18:11;96994.03;;;8.75;59.02
59194;BME280;44967;48.598;15.650;2022-11-23T02:20:38;96994.38;;;8.70;58.50
59194;BME280;44967;48.598;15.650;2022-11-23T02:23:15;96985.03;;;8.71;59.77
59194;BME280;44967;48.598;15.650;2022-11-23T02:28:13;96986.97;;;8.67;59.07
59194;BME280;44967;48.598;15.650;2022-11-23T02:30:40;96984.53;;;8.55;60.40
59194;BME280;44967;48.598;15.650;2022-11-23T02:33:06;96983.81;;;8.61;60.48
59194;BME280;44967;48.598;15.650;2022-11-23T02:35:33;96992.34;;;8.60;60.08
59194;BME280;44967;48.598;15.650;2022-11-23T02:38:01;97002.44;;;8.56;59.45
59194;BME280;44967;48.598;15.650;2022-11-23T02:40:33;96998.13;;;8.55;59.31
59194;BME280;44967;48.598;15.650;2022-11-23T02:43:01;97007.56;;;8.64;59.33
59194;BME280;44967;48.598;15.650;2022-11-23T02:45:33;97013.28;;;8.52;60.13
59194;BME280;44967;48.598;15.650;2022-11-23T02:48:01;97012.41;;;8.44;60.02
59194;BME280;44967;48.598;15.650;2022-11-23T02:50:27;97022.28;;;8.60;59.37
59194;BME280;44967;48.598;15.650;2022-11-23T02:52:52;97017.22;;;8.58;60.14
59194;BME280;44967;48.598;15.650;2022-11-23T02:55:18;97016.09;;;8.63;60.43
59194;BME280;44967;48.598;15.650;2022-11-23T02:57:44;97020.34;;;8.57;59.92
59194;BME280;44967;48.598;15.650;2022-11-23T03:00:10;97015.63;;;8.54;60.57
59194;BME280;44967;48.598;15.650;2022-11-23T03:02:36;97021.06;;;8.54;60.11
59194;BME280;44967;48.598;15.650;2022-11-23T03:05:02;97028.06;;;8.55;60.28
59194;BME280;44967;48.598;15.650;2022-11-23T03:07:28;97017.97;;;8.55;60.77
59194;BME280;44967;48.598;15.650;2022-11-23T03:09:54;97017.97;;;8.55;59.75
59194;BME280;44967;48.598;15.650;2022-11-23T03:12:19;97014.09;;;8.56;60.13
59194;BME280;44967;48.598;15.650;2022-11-23T03:14:45;97007.69;;;8.37;60.98
59194;BME280;44967;48.598;15.650;2022-11-23T03:17:11;97003.00;;;8.38;60.15
59194;BME280;44967;48.598;15.650;2022-11-23T03:19:36;97015.34;;;8.28;60.42
59194;BME280;44967;48.598;15.650;2022-11-23T03:22:02;97008.69;;;8.22;59.70
59194;BME280;44967;48.598;15.650;2022-11-23T03:24:28;97006.78;;;8.26;61.08
59194;BME280;44967;48.598;15.650;2022-11-23T03:26:54;96998.03;;;8.06;60.64
59194;BME280;44967;48.598;15.650;2022-11-23T03:29:20;97007.66;;;8.00;60.98
59194;BME280;44967;48.598;15.650;2022-11-23T03:31:49;97006.69;;;7.81;60.39
59194;BME280;44967;48.598;15.650;2022-11-23T03:34:15;97002.69;;;7.71;61.48
59194;BME280;44967;48.598;15.650;2022-11-23T03:36:41;97003.88;;;7.74;61.29
59194;BME280;44967;48.598;15.650;2022-11-23T03:39:07;97010.47;;;7.73;62.33
59194;BME280;44967;48.598;15.650;2022-11-23T03:41:32;97005.63;;;7.89;61.22
59194;BME280;44967;48.598;15.650;2022-11-23T03:43:58;97007.03;;;7.79;61.72
59194;BME280;44967;48.598;15.650;2022-11-23T03:46:23;97002.06;;;7.85;62.35
59194;BME280;44967;48.598;15.650;2022-11-23T03:48:49;97002.13;;;7.92;60.70
59194;BME280;44967;48.598;15.650;2022-11-23T03:51:15;97015.19;;;7.79;61.84
59194;BME280;44967;48.598;15.650;2022-11-23T03:53:40;97010.03;;;7.67;61.11
59194;BME280;44967;48.598;15.650;2022-11-23T03:56:06;97014.44;;;7.79;62.21
59194;BME280;44967;48.598;15.650;2022-11-23T03:58:32;97006.06;;;7.61;61.21
59194;BME280;44967;48.598;15.650;2022-11-23T04:00:58;96999.09;;;7.63;61.76
59194;BME280;44967;48.598;15.650;2022-11-23T04:03:24;96994.28;;;7.53;61.93
59194;BME280;44967;48.598;15.650;2022-11-23T04:05:49;96994.28;;;7.53;61.69
59194;BME280;44967;48.598;15.650;2022-11-23T04:08:15;96999.50;;;7.35;63.00
59194;BME280;44967;48.598;15.650;2022-11-23T04:10:40;96991.38;;;7.38;63.41
59194;BME280;44967;48.598;15.650;2022-11-23T04:13:06;97000.78;;;7.45;62.54
59194;BME280;44967;48.598;15.650;2022-11-23T04:15:32;96996.25;;;7.52;61.78
59194;BME280;44967;48.598;15.650;2022-11-23T04:17:57;96987.25;;;7.48;61.88
59194;BME280;44967;48.598;15.650;2022-11-23T04:20:23;97001.94;;;7.44;62.34
59194;BME280;44967;48.598;15.650;2022-11-23T04:22:48;97006.66;;;7.47;62.73
59194;BME280;44967;48.598;15.650;2022-11-23T04:25:15;97009.94;;;7.33;61.80
59194;BME280;44967;48.598;15.650;2022-11-23T04:27:40;97008.53;;;7.43;63.41
59194;BME280;44967;48.598;15.650;2022-11-23T04:30:06;97005.69;;;7.62;61.84
59194;BME280;44967;48.598;15.650;2022-11-23T04:32:32;97003.03;;;7.69;61.01
59194;BME280;44967;48.598;15.650;2022-11-23T04:34:58;97010.44;;;7.69;61.70
59194;BME280;44967;48.598;15.650;2022-11-23T04:37:23;97008.41;;;7.62;61.58
59194;BME280;44967;48.598;15.650;2022-11-23T04:39:49;96998.53;;;7.81;61.22
59194;BME280;44967;48.598;15.650;2022-11-23T04:42:14;97006.44;;;7.93;61.62
59194;BME280;44967;48.598;15.650;2022-11-23T04:44:40;97008.56;;;7.77;62.77
59194;BME280;44967;48.598;15.650;2022-11-23T04:47:06;97009.03;;;7.52;62.20
59194;BME280;44967;48.598;15.650;2022-11-23T04:49:31;97005.03;;;7.73;60.67
59194;BME280;44967;48.598;15.650;2022-11-23T04:51:57;97008.13;;;7.71;62.52
59194;BME280;44967;48.598;15.650;2022-11-23T04:54:23;97010.97;;;7.82;62.61
59194;BME280;44967;48.598;15.650;2022-11-23T04:56:48;96998.63;;;7.88;62.49
59194;BME280;44967;48.598;15.650;2022-11-23T04:59:14;97005.81;;;8.07;61.59
59194;BME280;44967;48.598;15.650;2022-11-23T05:01:40;97002.63;;;7.98;61.73
59194;BME280;44967;48.598;15.650;2022-11-23T05:04:05;97015.00;;;7.95;61.27
59194;BME280;44967;48.598;15.650;2022-11-23T05:06:31;97008.56;;;7.77;60.89
59194;BME280;44967;48.598;15.650;2022-11-23T05:08:56;97023.13;;;7.92;61.93
59194;BME280;44967;48.598;15.650;2022-11-23T05:11:22;97024.31;;;7.94;60.92
59194;BME280;44967;48.598;15.650;2022-11-23T05:13:47;97024.66;;;7.89;60.89
59194;BME280;44967;48.598;15.650;2022-11-23T05:16:13;97021.25;;;8.00;61.52
59194;BME280;44967;48.598;15.650;2022-11-23T05:18:39;97022.13;;;8.07;61.64
59194;BME280;44967;48.598;15.650;2022-11-23T05:21:05;97022.25;;;8.18;60.53
59194;BME280;44967;48.598;15.650;2022-11-23T05:23:31;97026.34;;;8.01;61.46
59194;BME280;44967;48.598;15.650;2022-11-23T05:25:56;97026.13;;;8.17;61.61
59194;BME280;44967;48.598;15.650;2022-11-23T05:28:22;97029.28;;;8.23;61.09
59194;BME280;44967;48.598;15.650;2022-11-23T05:30:48;97037.06;;;8.21;59.92
59194;BME280;44967;48.598;15.650;2022-11-23T05:33:24;97030.50;;;8.26;60.40
59194;BME280;44967;48.598;15.650;2022-11-23T05:35:50;97031.66;;;8.25;61.22
59194;BME280;44967;48.598;15.650;2022-11-23T05:38:16;97026.56;;;8.23;60.27
59194;BME280;44967;48.598;15.650;2022-11-23T05:40:43;97033.47;;;8.13;60.17
59194;BME280;44967;48.598;15.650;2022-11-23T05:43:10;97036.13;;;8.09;59.82
59194;BME280;44967;48.598;15.650;2022-11-23T05:45:35;97039.06;;;8.28;61.07
59194;BME280;44967;48.598;15.650;2022-11-23T05:48:01;97037.56;;;8.34;60.79
59194;BME280;44967;48.598;15.650;2022-11-23T05:50:27;97035.53;;;8.27;60.65
59194;BME280;44967;48.598;15.650;2022-11-23T05:52:57;97040.19;;;8.23;60.76
59194;BME280;44967;48.598;15.650;2022-11-23T05:55:24;97042.03;;;8.15;59.73
59194;BME280;44967;48.598;15.650;2022-11-23T05:57:50;97041.72;;;8.24;60.71
59194;BME280;44967;48.598;15.650;2022-11-23T06:00:16;97040.19;;;8.23;61.16
59194;BME280;44967;48.598;15.650;2022-11-23T06:02:42;97037.94;;;8.32;60.64
59194;BME280;44967;48.598;15.650;2022-11-23T06:05:08;97040.22;;;8.27;60.59
59194;BME280;44967;48.598;15.650;2022-11-23T06:07:34;97031.53;;;8.14;59.67
59194;BME280;44967;48.598;15.650;2022-11-23T06:10:01;97052.22;;;8.22;60.97
59194;BME280;44967;48.598;15.650;2022-11-23T06:12:28;97052.19;;;8.18;60.68
59194;BME280;44967;48.598;15.650;2022-11-23T06:14:54;97053.28;;;8.14;60.89
59194;BME280;44967;48.598;15.650;2022-11-23T06:17:20;97053.78;;;8.23;60.95
59194;BME280;44967;48.598;15.650;2022-11-23T06:19:45;97048.75;;;8.25;60.61
59194;BME280;44967;48.598;15.650;2022-11-23T06:22:11;97047.50;;;8.19;61.45
59194;BME280;44967;48.598;15.650;2022-11-23T06:24:37;97051.19;;;8.34;59.35
59194;BME280;44967;48.598;15.650;2022-11-23T06:27:03;97054.69;;;8.38;61.45
59194;BME280;44967;48.598;15.650;2022-11-23T06:29:29;97056.56;;;8.30;60.28
59194;BME280;44967;48.598;15.650;2022-11-23T06:31:54;97063.63;;;8.35;60.77
59194;BME280;44967;48.598;15.650;2022-11-23T06:34:20;97059.56;;;8.21;59.70
59194;BME280;44967;48.598;15.650;2022-11-23T06:36:46;97067.38;;;8.23;59.47
59194;BME280;44967;48.598;15.650;2022-11-23T06:39:12;97073.00;;;8.07;59.31
59194;BME280;44967;48.598;15.650;2022-11-23T06:41:38;97062.25;;;8.18;61.54
59194;BME280;44967;48.598;15.650;2022-11-23T06:44:04;97066.66;;;8.30;59.48
59194;BME280;44967;48.598;15.650;2022-11-23T06:46:30;97069.03;;;8.31;59.89
59194;BME280;44967;48.598;15.650;2022-11-23T06:48:56;97071.44;;;8.40;60.12
59194;BME280;44967;48.598;15.650;2022-11-23T06:51:22;97070.72;;;8.47;60.39
59194;BME280;44967;48.598;15.650;2022-11-23T06:53:48;97074.72;;;8.53;60.37
59194;BME280;44967;48.598;15.650;2022-11-23T06:56:13;97068.06;;;8.50;59.48
59194;BME280;44967;48.598;15.650;2022-11-23T06:58:39;97071.59;;;8.55;60.13
59194;BME280;44967;48.598;15.650;2022-11-23T07:01:07;97077.00;;;8.51;58.64
59194;BME280;44967;48.598;15.650;2022-11-23T07:03:33;97073.81;;;8.45;59.11
59194;BME280;44967;48.598;15.650;2022-11-23T07:06:06;97073.78;;;8.42;60.35
59194;BME280;44967;48.598;15.650;2022-11-23T07:08:33;97078.13;;;8.50;59.32
59194;BME280;44967;48.598;15.650;2022-11-23T07:11:02;97073.50;;;8.50;58.81
59194;BME280;44967;48.598;15.650;2022-11-23T07:13:29;97082.97;;;8.60;59.23
59194;BME280;44967;48.598;15.650;2022-11-23T07:15:56;97083.31;;;8.59;59.07
59194;BME280;44967;48.598;15.650;2022-11-23T07:18:22;97080.97;;;8.57;58.88
59194;BME280;44967;48.598;15.650;2022-11-23T07:20:47;97083.28;;;8.55;59.98
59194;BME280;44967;48.598;15.650;2022-11-23T07:23:13;97080.19;;;8.57;59.32
59194;BME280;44967;48.598;15.650;2022-11-23T07:25:39;97090.81;;;8.69;58.98
59194;BME280;44967;48.598;15.650;2022-11-23T07:28:06;97085.41;;;8.73;60.70
59194;BME280;44967;48.598;15.650;2022-11-23T07:30:33;97089.78;;;8.85;60.16
59194;BME280;44967;48.598;15.650;2022-11-23T07:33:06;97098.34;;;8.83;58.27
59194;BME280;44967;48.598;15.650;2022-11-23T07:35:33;97095.16;;;8.77;60.18
59194;BME280;44967;48.598;15.650;2022-11-23T07:37:59;97092.84;;;8.76;60.18
59194;BME280;44967;48.598;15.650;2022-11-23T07:40:25;97084.91;;;8.63;60.06
59194;BME280;44967;48.598;15.650;2022-11-23T07:42:51;97082.56;;;8.62;60.13
59194;BME280;44967;48.598;15.650;2022-11-23T07:45:17;97091.97;;;8.68;59.29
59194;BME280;44967;48.598;15.650;2022-11-23T07:47:42;97098.66;;;8.74;60.15
59194;BME280;44967;48.598;15.650;2022-11-23T07:50:10;97096.13;;;8.58;59.07
59194;BME280;44967;48.598;15.650;2022-11-23T07:52:38;97093.13;;;8.67;59.39
59194;BME280;44967;48.598;15.650;2022-11-23T07:55:04;97088.00;;;8.62;59.04
59194;BME280;44967;48.598;15.650;2022-11-23T07:57:30;97095.16;;;8.77;59.05
59194;BME280;44967;48.598;15.650;2022-11-23T07:59:56;97088.97;;;8.81;59.59
59194;BME280;44967;48.598;15.650;2022-11-23T08:02:21;97099.53;;;8.89;58.94
59194;BME280;44967;48.598;15.650;2022-11-23T08:04:48;97091.34;;;8.86;59.36
59194;BME280;44967;48.598;15.650;2022-11-23T08:07:13;97086.72;;;8.90;59.91
59194;BME280;44967;48.598;15.650;2022-11-23T08:09:39;97091.81;;;8.91;60.26
59194;BME280;44967;48.598;15.650;2022-11-23T08:12:06;97094.53;;;8.91;60.91
59194;BME280;44967;48.598;15.650;2022-11-23T08:14:32;97078.63;;;8.97;59.48
59194;BME280;44967;48.598;15.650;2022-11-23T08:16:57;97083.75;;;9.10;59.81
59194;BME280;44967;48.598;15.650;2022-11-23T08:19:23;97085.38;;;9.18;60.70
59194;BME280;44967;48.598;15.650;2022-11-23T08:21:48;97082.72;;;9.25;59.86
59194;BME280;44967;48.598;15.650;2022-11-23T08:24:14;97082.06;;;9.39;60.20
59194;BME280;44967;48.598;15.650;2022-11-23T08:26:40;97084.84;;;9.50;59.55
59194;BME280;44967;48.598;15.650;2022-11-23T08:29:05;97072.84;;;9.58;59.70
59194;BME280;44967;48.598;15.650;2022-11-23T08:31:31;97065.88;;;9.68;59.22
59194;BME280;44967;48.598;15.650;2022-11-23T08:33:57;97076.03;;;9.71;59.14
59194;BME280;44967;48.598;15.650;2022-11-23T08:36:23;97074.09;;;9.79;58.81
59194;BME280;44967;48.598;15.650;2022-11-23T08:38:48;97068.69;;;9.90;58.34
59194;BME280;44967;48.598;15.650;2022-11-23T08:41:18;97059.78;;;9.97;58.33
59194;BME280;44967;48.598;15.650;2022-11-23T08:43:46;97064.47;;;10.00;58.16
59194;BME280;44967;48.598;15.650;2022-11-23T08:46:12;97064.81;;;9.95;57.36
59194;BME280;44967;48.598;15.650;2022-11-23T08:48:38;97076.13;;;9.90;58.85
59194;BME280;44967;48.598;15.650;2022-11-23T08:51:04;97075.75;;;10.02;58.76
59194;BME280;44967;48.598;15.650;2022-11-23T08:53:29;97064.44;;;9.96;58.54
59194;BME280;44967;48.598;15.650;2022-11-23T08:55:55;97073.00;;;9.95;58.10
59194;BME280;44967;48.598;15.650;2022-11-23T08:58:21;97069.50;;;9.94;58.92
59194;BME280;44967;48.598;15.650;2022-11-23T09:00:47;97064.47;;;10.04;58.69
59194;BME280;44967;48.598;15.650;2022-11-23T09:03:12;97080.09;;;10.14;58.02
59194;BME280;44967;48.598;15.650;2022-11-23T09:05:38;97077.31;;;10.03;58.25
59194;BME280;44967;48.598;15.650;2022-11-23T09:08:04;97078.91;;;10.00;58.72
59194;BME280;44967;48.598;15.650;2022-11-23T09:10:30;97080.88;;;10.11;58.69
59194;BME280;44967;48.598;15.650;2022-11-23T09:12:55;97067.25;;;10.14;58.03
59194;BME280;44967;48.598;15.650;2022-11-23T09:15:22;97077.28;;;9.92;57.96
59194;BME280;44967;48.598;15.650;2022-11-23T09:17:48;97078.44;;;9.91;59.15
59194;BME280;44967;48.598;15.650;2022-11-23T09:20:14;97071.50;;;10.05;58.98
59194;BME280;44967;48.598;15.650;2022-11-23T09:22:40;97070.34;;;10.13;57.71
59194;BME280;44967;48.598;15.650;2022-11-23T09:25:06;97069.19;;;10.14;58.66
59194;BME280;44967;48.598;15.650;2022-11-23T09:27:33;97068.78;;;10.08;58.45
59194;BME280;44967;48.598;15.650;2022-11-23T09:29:58;97073.78;;;9.92;59.01
59194;BME280;44967;48.598;15.650;2022-11-23T09:32:24;97074.56;;;9.96;57.76
59194;BME280;44967;48.598;15.650;2022-11-23T09:34:49;97071.88;;;10.03;58.01
59194;BME280;44967;48.598;15.650;2022-11-23T09:37:15;97059.69;;;9.79;59.45
59194;BME280;44967;48.598;15.650;2022-11-23T09:39:41;97059.41;;;10.06;58.83
59194;BME280;44967;48.598;15.650;2022-11-23T09:53:09;97058.69;;;10.16;58.04
59194;BME280;44967;48.598;15.650;2022-11-23T09:55:41;97061.78;;;10.07;58.79
59194;BME280;44967;48.598;15.650;2022-11-23T09:58:12;97052.81;;;10.14;58.46
59194;BME280;44967;48.598;15.650;2022-11-23T10:03:20;97046.56;;;10.02;58.53
59194;BME280;44967;48.598;15.650;2022-11-23T10:06:16;97047.72;;;9.98;57.52
59194;BME280;44967;48.598;15.650;2022-11-23T10:08:54;97032.53;;;10.00;57.84
59194;BME280;44967;48.598;15.650;2022-11-23T10:16:42;97043.41;;;9.90;59.00
59194;BME280;44967;48.598;15.650;2022-11-23T10:22:12;97046.50;;;9.92;58.60
59194;BME280;44967;48.598;15.650;2022-11-23T10:24:45;97035.91;;;9.76;58.63
59194;BME280;44967;48.598;15.650;2022-11-23T10:27:14;97044.34;;;9.49;59.29
59194;BME280;44967;48.598;15.650;2022-11-23T10:29:41;97034.22;;;9.53;58.00
59194;BME280;44967;48.598;15.650;2022-11-23T10:35:11;97033.97;;;9.72;58.87
59194;BME280;44967;48.598;15.650;2022-11-23T10:37:38;97037.16;;;9.93;57.89
59194;BME280;44967;48.598;15.650;2022-11-23T10:40:23;97039.09;;;9.88;57.98
59194;BME280;44967;48.598;15.650;2022-11-23T10:42:56;97030.47;;;9.79;59.30
59194;BME280;44967;48.598;15.650;2022-11-23T10:45:27;97034.09;;;10.05;58.92
59194;BME280;44967;48.598;15.650;2022-11-23T10:47:58;97024.34;;;10.08;57.51
59194;BME280;44967;48.598;15.650;2022-11-23T10:50:35;97022.38;;;10.01;56.65
59194;BME280;44967;48.598;15.650;2022-11-23T10:53:21;97023.91;;;9.95;58.65
59194;BME280;44967;48.598;15.650;2022-11-23T10:58:29;97015.75;;;10.02;58.14
59194;BME280;44967;48.598;15.650;2022-11-23T11:01:00;97013.44;;;10.00;58.12
59194;BME280;44967;48.598;15.650;2022-11-23T11:03:30;97013.44;;;10.08;59.09
59194;BME280;44967;48.598;15.650;2022-11-23T11:05:57;97007.25;;;10.18;58.84
59194;BME280;44967;48.598;15.650;2022-11-23T11:08:28;97008.81;;;10.26;58.27
59194;BME280;44967;48.598;15.650;2022-11-23T11:11:03;97012.31;;;10.23;58.37
59194;BME280;44967;48.598;15.650;2022-11-23T11:13:46;97009.53;;;9.98;58.57
59194;BME280;44967;48.598;15.650;2022-11-23T11:16:34;97012.50;;;9.64;58.17
59194;BME280;44967;48.598;15.650;2022-11-23T11:19:25;97014.38;;;9.52;59.14
59194;BME280;44967;48.598;15.650;2022-11-23T11:21:51;97016.25;;;9.41;58.21
59194;BME280;44967;48.598;15.650;2022-11-23T11:24:20;97013.25;;;9.60;58.77
59194;BME280;44967;48.598;15.650;2022-11-23T11:26:55;97011.69;;;9.59;58.65
59194;BME280;44967;48.598;15.650;2022-11-23T11:34:54;97014.31;;;9.38;58.49
59194;BME280;44967;48.598;15.650;2022-11-23T11:40:49;96995.63;;;9.40;59.05
59194;BME280;44967;48.598;15.650;2022-11-23T11:45:44;96981.41;;;9.79;57.78
59194;BME280;44967;48.598;15.650;2022-11-23T11:48:18;96982.94;;;9.80;58.01
59194;BME280;44967;48.598;15.650;2022-11-23T11:50:54;96976.72;;;9.80;57.65
59194;BME280;44967;48.598;15.650;2022-11-23T11:53:34;96980.69;;;9.97;58.06
59194;BME280;44967;48.598;15.650;2022-11-23T11:56:11;96995.06;;;9.86;57.52
59194;BME280;44967;48.598;15.650;2022-11-23T11:58:43;96983.72;;;9.77;58.42
59194;BME280;44967;48.598;15.650;2022-11-23T12:01:39;96976.78;;;9.91;56.52
59194;BME280;44967;48.598;15.650;2022-11-23T12:04:26;96969.78;;;9.93;56.76
59194;BME280;44967;48.598;15.650;2022-11-23T12:09:31;96988.94;;;10.26;57.23
59194;BME280;44967;48.598;15.650;2022-11-23T12:11:59;96982.28;;;10.27;57.13
59194;BME280;44967;48.598;15.650;2022-11-23T12:14:25;96998.69;;;10.16;56.82
59194;BME280;44967;48.598;15.650;2022-11-23T12:30:25;96995.25;;;10.48;56.12
59194;BME280;44967;48.598;15.650;2022-11-23T12:38:29;96981.59;;;10.45;56.47
59194;BME280;44967;48.598;15.650;2022-11-23T12:41:22;96983.88;;;10.28;56.83
59194;BME280;44967;48.598;15.650;2022-11-23T12:51:59;96997.91;;;10.26;56.70
59194;BME280;44967;48.598;15.650;2022-11-23T12:59:43;96989.63;;;9.97;57.94
59194;BME280;44967;48.598;15.650;2022-11-23T13:05:24;96983.72;;;9.77;57.87
59194;BME280;44967;48.598;15.650;2022-11-23T13:08:21;96987.75;;;10.16;58.46
59194;BME280;44967;48.598;15.650;2022-11-23T13:21:28;96998.38;;;10.50;56.40
59194;BME280;44967;48.598;15.650;2022-11-23T13:23:55;96989.78;;;10.70;56.51
59194;BME280;44967;48.598;15.650;2022-11-23T13:26:23;96990.97;;;10.80;56.09
59194;BME280;44967;48.598;15.650;2022-11-23T13:28:51;96989.41;;;10.90;55.00
59194;BME280;44967;48.598;15.650;2022-11-23T13:31:26;96988.59;;;10.93;54.60
59194;BME280;44967;48.598;15.650;2022-11-23T13:33:54;96992.91;;;10.65;54.92
59194;BME280;44967;48.598;15.650;2022-11-23T13:38:56;96991.75;;;10.91;56.28
59194;BME280;44967;48.598;15.650;2022-11-23T13:43:57;96993.28;;;10.56;55.98
59194;BME280;44967;48.598;15.650;2022-11-23T13:46:26;96985.13;;;10.81;55.84
59194;BME280;44967;48.598;15.650;2022-11-23T13:48:56;96994.06;;;11.04;54.70
59194;BME280;44967;48.598;15.650;2022-11-23T13:53:56;96986.66;;;10.82;54.60
59194;BME280;44967;48.598;15.650;2022-11-23T14:04:31;96992.50;;;10.70;55.56
59194;BME280;44967;48.598;15.650;2022-11-23T14:06:58;97005.75;;;10.53;55.70
59194;BME280;44967;48.598;15.650;2022-11-23T14:12:11;96999.94;;;10.77;56.11
59194;BME280;44967;48.598;15.650;2022-11-23T14:42:20;97015.75;;;10.02;56.78
59194;BME280;44967;48.598;15.650;2022-11-23T14:44:46;97008.00;;;10.11;56.78
59194;BME280;44967;48.598;15.650;2022-11-23T14:47:12;97004.88;;;10.09;56.80
59194;BME280;44967;48.598;15.650;2022-11-23T14:49:49;97012.66;;;10.07;57.10
59194;BME280;44967;48.598;15.650;2022-11-23T14:52:18;97003.31;;;10.05;56.16
59194;BME280;44967;48.598;15.650;2022-11-23T14:54:54;97000.94;;;9.99;57.28
59194;BME280;44967;48.598;15.650;2022-11-23T14:57:22;97004.47;;;10.00;57.51
59194;BME280;44967;48.598;15.650;2022-11-23T14:59:51;97001.69;;;9.89;56.96
59194;BME280;44967;48.598;15.650;2022-11-23T15:02:39;97009.88;;;9.93;57.33
59194;BME280;44967;48.598;15.650;2022-11-23T15:05:27;97003.97;;;9.72;57.28
59194;BME280;44967;48.598;15.650;2022-11-23T15:08:04;97018.84;;;9.90;57.25
59194;BME280;44967;48.598;15.650;2022-11-23T15:13:25;97014.56;;;9.99;55.50
59194;BME280;44967;48.598;15.650;2022-11-23T15:15:53;97022.28;;;9.79;56.85
59194;BME280;44967;48.598;15.650;2022-11-23T15:18:37;97012.97;;;9.87;56.34
59194;BME280;44967;48.598;15.650;2022-11-23T15:23:39;97018.91;;;10.00;56.82